sensor_id;sensor_type;location;lat;lon;timestamp;P1;durP1;ratioP1;P2;durP2;ratioP2
46931;SDS011;32670;51.464;11.964;2022-08-21T00:02:19;7.43;;;6.93;;
46931;SDS011;32670;51.464;11.964;2022-08-21T00:04:48;7.90;;;7.10;;
46931;SDS011;32670;51.464;11.964;2022-08-21T00:07:15;7.80;;;7.10;;
46931;SDS011;32670;51.464;11.964;2022-08-21T00:09:41;7.40;;;6.80;;
46931;SDS011;32670;51.464;11.964;2022-08-21T00:12:07;7.60;;;7.00;;
46931;SDS011;32670;51.464;11.964;2022-08-21T00:14:33;8.97;;;7.20;;
46931;SDS011;32670;51.464;11.964;2022-08-21T00:16:59;7.80;;;7.20;;
46931;SDS011;32670;51.464;11.964;2022-08-21T00:19:25;7.73;;;7.13;;
46931;SDS011;32670;51.464;11.964;2022-08-21T00:21:52;8.37;;;7.73;;
46931;SDS011;32670;51.464;11.964;2022-08-21T00:24:18;7.80;;;7.20;;
46931;SDS011;32670;51.464;11.964;2022-08-21T00:26:44;7.70;;;7.20;;
46931;SDS011;32670;51.464;11.964;2022-08-21T00:29:10;8.13;;;7.50;;
46931;SDS011;32670;51.464;11.964;2022-08-21T00:31:36;7.73;;;7.13;;
46931;SDS011;32670;51.464;11.964;2022-08-21T00:34:02;7.73;;;7.13;;
46931;SDS011;32670;51.464;11.964;2022-08-21T00:36:28;7.57;;;6.97;;
46931;SDS011;32670;51.464;11.964;2022-08-21T00:38:54;7.90;;;7.30;;
46931;SDS011;32670;51.464;11.964;2022-08-21T00:41:20;7.43;;;6.83;;
46931;SDS011;32670;51.464;11.964;2022-08-21T00:43:47;7.80;;;7.00;;
46931;SDS011;32670;51.464;11.964;2022-08-21T00:46:13;7.77;;;7.13;;
46931;SDS011;32670;51.464;11.964;2022-08-21T00:48:39;7.77;;;7.17;;
46931;SDS011;32670;51.464;11.964;2022-08-21T00:51:06;7.40;;;6.63;;
46931;SDS011;32670;51.464;11.964;2022-08-21T00:53:36;7.90;;;7.20;;
46931;SDS011;32670;51.464;11.964;2022-08-21T00:56:04;8.03;;;7.30;;
46931;SDS011;32670;51.464;11.964;2022-08-21T00:58:32;7.70;;;6.93;;
46931;SDS011;32670;51.464;11.964;2022-08-21T01:01:00;8.13;;;7.43;;
46931;SDS011;32670;51.464;11.964;2022-08-21T01:03:28;7.17;;;6.57;;
46931;SDS011;32670;51.464;11.964;2022-08-21T01:05:53;7.30;;;6.60;;
46931;SDS011;32670;51.464;11.964;2022-08-21T01:08:19;6.87;;;6.37;;
46931;SDS011;32670;51.464;11.964;2022-08-21T01:10:46;6.30;;;5.70;;
46931;SDS011;32670;51.464;11.964;2022-08-21T01:13:13;6.43;;;5.83;;
46931;SDS011;32670;51.464;11.964;2022-08-21T01:15:42;6.03;;;5.63;;
46931;SDS011;32670;51.464;11.964;2022-08-21T01:18:11;5.80;;;5.30;;
46931;SDS011;32670;51.464;11.964;2022-08-21T01:20:37;6.13;;;5.63;;
46931;SDS011;32670;51.464;11.964;2022-08-21T01:23:06;5.80;;;5.40;;
46931;SDS011;32670;51.464;11.964;2022-08-21T01:25:33;5.80;;;5.40;;
46931;SDS011;32670;51.464;11.964;2022-08-21T01:28:01;5.80;;;5.30;;
46931;SDS011;32670;51.464;11.964;2022-08-21T01:30:37;5.60;;;5.10;;
46931;SDS011;32670;51.464;11.964;2022-08-21T01:33:03;5.60;;;5.20;;
46931;SDS011;32670;51.464;11.964;2022-08-21T01:35:29;6.23;;;5.27;;
46931;SDS011;32670;51.464;11.964;2022-08-21T01:37:54;5.20;;;4.70;;
46931;SDS011;32670;51.464;11.964;2022-08-21T01:40:20;5.83;;;5.33;;
46931;SDS011;32670;51.464;11.964;2022-08-21T01:42:46;5.60;;;5.20;;
46931;SDS011;32670;51.464;11.964;2022-08-21T01:45:14;6.10;;;5.03;;
46931;SDS011;32670;51.464;11.964;2022-08-21T01:47:40;5.60;;;5.10;;
46931;SDS011;32670;51.464;11.964;2022-08-21T01:50:09;5.73;;;4.80;;
46931;SDS011;32670;51.464;11.964;2022-08-21T01:52:36;5.47;;;4.97;;
46931;SDS011;32670;51.464;11.964;2022-08-21T01:55:03;5.93;;;5.43;;
46931;SDS011;32670;51.464;11.964;2022-08-21T01:57:29;5.40;;;5.00;;
46931;SDS011;32670;51.464;11.964;2022-08-21T01:59:54;5.37;;;4.93;;
46931;SDS011;32670;51.464;11.964;2022-08-21T02:02:20;4.80;;;4.30;;
46931;SDS011;32670;51.464;11.964;2022-08-21T02:04:45;5.30;;;4.47;;
46931;SDS011;32670;51.464;11.964;2022-08-21T02:07:11;5.13;;;4.63;;
46931;SDS011;32670;51.464;11.964;2022-08-21T02:09:37;4.63;;;4.30;;
46931;SDS011;32670;51.464;11.964;2022-08-21T02:12:02;5.53;;;4.43;;
46931;SDS011;32670;51.464;11.964;2022-08-21T02:14:28;4.50;;;4.10;;
46931;SDS011;32670;51.464;11.964;2022-08-21T02:16:53;4.23;;;3.83;;
46931;SDS011;32670;51.464;11.964;2022-08-21T02:19:19;6.27;;;3.97;;
46931;SDS011;32670;51.464;11.964;2022-08-21T02:21:44;4.37;;;3.47;;
46931;SDS011;32670;51.464;11.964;2022-08-21T02:24:10;4.47;;;3.47;;
46931;SDS011;32670;51.464;11.964;2022-08-21T02:26:37;3.57;;;3.20;;
46931;SDS011;32670;51.464;11.964;2022-08-21T02:29:03;4.57;;;3.70;;
46931;SDS011;32670;51.464;11.964;2022-08-21T02:31:29;5.03;;;3.47;;
46931;SDS011;32670;51.464;11.964;2022-08-21T02:33:56;3.60;;;3.13;;
46931;SDS011;32670;51.464;11.964;2022-08-21T02:36:21;5.80;;;2.93;;
46931;SDS011;32670;51.464;11.964;2022-08-21T02:38:47;3.40;;;3.10;;
46931;SDS011;32670;51.464;11.964;2022-08-21T02:41:14;6.40;;;3.30;;
46931;SDS011;32670;51.464;11.964;2022-08-21T02:43:42;3.27;;;2.97;;
46931;SDS011;32670;51.464;11.964;2022-08-21T02:46:08;4.47;;;2.87;;
46931;SDS011;32670;51.464;11.964;2022-08-21T02:48:35;5.07;;;2.80;;
46931;SDS011;32670;51.464;11.964;2022-08-21T02:51:06;4.10;;;2.90;;
46931;SDS011;32670;51.464;11.964;2022-08-21T02:53:34;4.67;;;3.00;;
46931;SDS011;32670;51.464;11.964;2022-08-21T02:56:01;4.83;;;2.80;;
46931;SDS011;32670;51.464;11.964;2022-08-21T02:58:30;3.47;;;2.30;;
46931;SDS011;32670;51.464;11.964;2022-08-21T03:00:59;4.47;;;2.67;;
46931;SDS011;32670;51.464;11.964;2022-08-21T03:03:26;3.33;;;2.50;;
46931;SDS011;32670;51.464;11.964;2022-08-21T03:05:53;2.73;;;2.23;;
46931;SDS011;32670;51.464;11.964;2022-08-21T03:08:19;5.00;;;2.60;;
46931;SDS011;32670;51.464;11.964;2022-08-21T03:10:46;3.27;;;2.20;;
46931;SDS011;32670;51.464;11.964;2022-08-21T03:13:13;3.50;;;2.53;;
46931;SDS011;32670;51.464;11.964;2022-08-21T03:15:39;4.00;;;2.37;;
46931;SDS011;32670;51.464;11.964;2022-08-21T03:18:06;5.40;;;2.43;;
46931;SDS011;32670;51.464;11.964;2022-08-21T03:20:33;5.90;;;2.60;;
46931;SDS011;32670;51.464;11.964;2022-08-21T03:22:59;4.47;;;2.50;;
46931;SDS011;32670;51.464;11.964;2022-08-21T03:25:26;4.53;;;2.20;;
46931;SDS011;32670;51.464;11.964;2022-08-21T03:27:52;5.20;;;2.30;;
46931;SDS011;32670;51.464;11.964;2022-08-21T03:30:19;4.53;;;2.30;;
46931;SDS011;32670;51.464;11.964;2022-08-21T03:32:46;4.63;;;2.40;;
46931;SDS011;32670;51.464;11.964;2022-08-21T03:35:12;3.10;;;1.97;;
46931;SDS011;32670;51.464;11.964;2022-08-21T03:37:38;3.23;;;2.00;;
46931;SDS011;32670;51.464;11.964;2022-08-21T03:40:05;3.90;;;2.30;;
46931;SDS011;32670;51.464;11.964;2022-08-21T03:42:32;2.97;;;2.20;;
46931;SDS011;32670;51.464;11.964;2022-08-21T03:44:58;3.73;;;2.60;;
46931;SDS011;32670;51.464;11.964;2022-08-21T03:47:23;4.07;;;2.67;;
46931;SDS011;32670;51.464;11.964;2022-08-21T03:49:49;3.20;;;2.30;;
46931;SDS011;32670;51.464;11.964;2022-08-21T03:52:14;4.13;;;2.77;;
46931;SDS011;32670;51.464;11.964;2022-08-21T03:54:41;5.03;;;2.40;;
46931;SDS011;32670;51.464;11.964;2022-08-21T03:57:08;4.67;;;2.63;;
46931;SDS011;32670;51.464;11.964;2022-08-21T03:59:34;4.10;;;2.70;;
46931;SDS011;32670;51.464;11.964;2022-08-21T04:02:01;5.63;;;2.43;;
46931;SDS011;32670;51.464;11.964;2022-08-21T04:04:28;2.50;;;2.30;;
46931;SDS011;32670;51.464;11.964;2022-08-21T04:06:54;4.40;;;2.60;;
46931;SDS011;32670;51.464;11.964;2022-08-21T04:09:21;2.60;;;2.20;;
46931;SDS011;32670;51.464;11.964;2022-08-21T04:11:47;6.50;;;2.53;;
46931;SDS011;32670;51.464;11.964;2022-08-21T04:14:13;2.33;;;2.07;;
46931;SDS011;32670;51.464;11.964;2022-08-21T04:16:39;4.63;;;2.50;;
46931;SDS011;32670;51.464;11.964;2022-08-21T04:19:06;3.73;;;2.50;;
46931;SDS011;32670;51.464;11.964;2022-08-21T04:21:32;3.30;;;2.17;;
46931;SDS011;32670;51.464;11.964;2022-08-21T04:23:58;3.80;;;2.30;;
46931;SDS011;32670;51.464;11.964;2022-08-21T04:26:24;4.33;;;2.23;;
46931;SDS011;32670;51.464;11.964;2022-08-21T04:28:50;4.43;;;2.20;;
46931;SDS011;32670;51.464;11.964;2022-08-21T04:31:16;3.00;;;2.43;;
46931;SDS011;32670;51.464;11.964;2022-08-21T04:33:41;3.83;;;2.40;;
46931;SDS011;32670;51.464;11.964;2022-08-21T04:36:07;3.13;;;2.40;;
46931;SDS011;32670;51.464;11.964;2022-08-21T04:38:33;6.30;;;2.80;;
46931;SDS011;32670;51.464;11.964;2022-08-21T04:40:58;4.87;;;2.60;;
46931;SDS011;32670;51.464;11.964;2022-08-21T04:43:24;4.40;;;2.37;;
46931;SDS011;32670;51.464;11.964;2022-08-21T04:45:50;5.23;;;2.90;;
46931;SDS011;32670;51.464;11.964;2022-08-21T04:48:18;3.43;;;2.53;;
46931;SDS011;32670;51.464;11.964;2022-08-21T04:50:47;2.93;;;2.60;;
46931;SDS011;32670;51.464;11.964;2022-08-21T04:53:32;2.73;;;2.40;;
46931;SDS011;32670;51.464;11.964;2022-08-21T04:56:02;4.97;;;2.50;;
46931;SDS011;32670;51.464;11.964;2022-08-21T04:58:33;3.10;;;2.50;;
46931;SDS011;32670;51.464;11.964;2022-08-21T05:00:59;3.17;;;2.47;;
46931;SDS011;32670;51.464;11.964;2022-08-21T05:03:26;6.60;;;2.40;;
46931;SDS011;32670;51.464;11.964;2022-08-21T05:05:52;4.20;;;2.67;;
46931;SDS011;32670;51.464;11.964;2022-08-21T05:08:18;3.67;;;2.20;;
46931;SDS011;32670;51.464;11.964;2022-08-21T05:10:46;2.80;;;2.40;;
46931;SDS011;32670;51.464;11.964;2022-08-21T05:13:12;2.70;;;2.27;;
46931;SDS011;32670;51.464;11.964;2022-08-21T05:15:39;5.30;;;2.80;;
46931;SDS011;32670;51.464;11.964;2022-08-21T05:18:05;3.37;;;2.80;;
46931;SDS011;32670;51.464;11.964;2022-08-21T05:20:31;6.00;;;5.07;;
46931;SDS011;32670;51.464;11.964;2022-08-21T05:22:59;3.83;;;3.53;;
46931;SDS011;32670;51.464;11.964;2022-08-21T05:25:25;6.53;;;3.40;;
46931;SDS011;32670;51.464;11.964;2022-08-21T05:27:50;5.23;;;3.53;;
46931;SDS011;32670;51.464;11.964;2022-08-21T05:30:16;5.87;;;3.80;;
46931;SDS011;32670;51.464;11.964;2022-08-21T05:32:41;7.00;;;5.60;;
46931;SDS011;32670;51.464;11.964;2022-08-21T05:35:07;5.77;;;4.47;;
46931;SDS011;32670;51.464;11.964;2022-08-21T05:37:33;7.60;;;5.47;;
46931;SDS011;32670;51.464;11.964;2022-08-21T05:39:59;7.27;;;5.17;;
46931;SDS011;32670;51.464;11.964;2022-08-21T05:42:25;10.13;;;5.30;;
46931;SDS011;32670;51.464;11.964;2022-08-21T05:44:50;5.43;;;4.87;;
46931;SDS011;32670;51.464;11.964;2022-08-21T05:47:16;7.93;;;5.20;;
46931;SDS011;32670;51.464;11.964;2022-08-21T05:49:42;8.03;;;4.90;;
46931;SDS011;32670;51.464;11.964;2022-08-21T05:52:07;7.87;;;4.80;;
46931;SDS011;32670;51.464;11.964;2022-08-21T05:54:33;5.70;;;4.37;;
46931;SDS011;32670;51.464;11.964;2022-08-21T05:57:00;7.50;;;4.67;;
46931;SDS011;32670;51.464;11.964;2022-08-21T05:59:26;7.80;;;4.77;;
46931;SDS011;32670;51.464;11.964;2022-08-21T06:01:52;6.27;;;4.27;;
46931;SDS011;32670;51.464;11.964;2022-08-21T06:04:18;4.40;;;4.00;;
46931;SDS011;32670;51.464;11.964;2022-08-21T06:06:43;5.80;;;4.00;;
46931;SDS011;32670;51.464;11.964;2022-08-21T06:09:09;4.47;;;3.80;;
46931;SDS011;32670;51.464;11.964;2022-08-21T06:11:34;5.33;;;4.50;;
46931;SDS011;32670;51.464;11.964;2022-08-21T06:14:00;7.27;;;4.10;;
46931;SDS011;32670;51.464;11.964;2022-08-21T06:16:26;5.10;;;3.80;;
46931;SDS011;32670;51.464;11.964;2022-08-21T06:18:51;5.97;;;4.00;;
46931;SDS011;32670;51.464;11.964;2022-08-21T06:21:17;6.30;;;4.40;;
46931;SDS011;32670;51.464;11.964;2022-08-21T06:23:43;5.70;;;4.73;;
46931;SDS011;32670;51.464;11.964;2022-08-21T06:26:10;7.67;;;5.07;;
46931;SDS011;32670;51.464;11.964;2022-08-21T06:28:37;6.90;;;5.90;;
46931;SDS011;32670;51.464;11.964;2022-08-21T06:31:12;11.10;;;9.03;;
46931;SDS011;32670;51.464;11.964;2022-08-21T06:33:40;9.53;;;8.63;;
46931;SDS011;32670;51.464;11.964;2022-08-21T06:36:06;8.00;;;6.70;;
46931;SDS011;32670;51.464;11.964;2022-08-21T06:38:32;10.67;;;6.50;;
46931;SDS011;32670;51.464;11.964;2022-08-21T06:40:57;10.73;;;9.73;;
46931;SDS011;32670;51.464;11.964;2022-08-21T06:43:23;10.97;;;8.63;;
46931;SDS011;32670;51.464;11.964;2022-08-21T06:45:48;10.43;;;8.97;;
46931;SDS011;32670;51.464;11.964;2022-08-21T06:48:14;10.27;;;8.50;;
46931;SDS011;32670;51.464;11.964;2022-08-21T06:50:39;11.23;;;9.43;;
46931;SDS011;32670;51.464;11.964;2022-08-21T06:53:09;14.47;;;11.23;;
46931;SDS011;32670;51.464;11.964;2022-08-21T06:55:37;14.27;;;11.33;;
46931;SDS011;32670;51.464;11.964;2022-08-21T06:58:03;13.57;;;11.10;;
46931;SDS011;32670;51.464;11.964;2022-08-21T07:00:30;13.37;;;11.97;;
46931;SDS011;32670;51.464;11.964;2022-08-21T07:02:56;15.27;;;11.90;;
46931;SDS011;32670;51.464;11.964;2022-08-21T07:05:24;14.50;;;12.73;;
46931;SDS011;32670;51.464;11.964;2022-08-21T07:07:51;15.70;;;14.00;;
46931;SDS011;32670;51.464;11.964;2022-08-21T07:10:17;15.67;;;13.87;;
46931;SDS011;32670;51.464;11.964;2022-08-21T07:12:42;16.97;;;14.50;;
46931;SDS011;32670;51.464;11.964;2022-08-21T07:15:08;15.77;;;14.07;;
46931;SDS011;32670;51.464;11.964;2022-08-21T07:17:34;19.30;;;17.30;;
46931;SDS011;32670;51.464;11.964;2022-08-21T07:19:59;18.20;;;16.40;;
46931;SDS011;32670;51.464;11.964;2022-08-21T07:22:25;16.87;;;15.27;;
46931;SDS011;32670;51.464;11.964;2022-08-21T07:24:52;16.67;;;14.87;;
46931;SDS011;32670;51.464;11.964;2022-08-21T07:27:18;17.37;;;15.30;;
46931;SDS011;32670;51.464;11.964;2022-08-21T07:29:43;15.50;;;13.97;;
46931;SDS011;32670;51.464;11.964;2022-08-21T07:32:09;18.20;;;15.80;;
46931;SDS011;32670;51.464;11.964;2022-08-21T07:34:34;21.83;;;16.63;;
46931;SDS011;32670;51.464;11.964;2022-08-21T07:37:00;19.20;;;15.50;;
46931;SDS011;32670;51.464;11.964;2022-08-21T07:39:25;17.50;;;15.70;;
46931;SDS011;32670;51.464;11.964;2022-08-21T07:41:51;18.30;;;16.57;;
46931;SDS011;32670;51.464;11.964;2022-08-21T07:44:16;18.23;;;16.43;;
46931;SDS011;32670;51.464;11.964;2022-08-21T07:46:44;20.53;;;18.33;;
46931;SDS011;32670;51.464;11.964;2022-08-21T07:49:10;14.73;;;12.93;;
46931;SDS011;32670;51.464;11.964;2022-08-21T07:51:36;11.77;;;9.70;;
46931;SDS011;32670;51.464;11.964;2022-08-21T07:54:01;11.77;;;10.50;;
46931;SDS011;32670;51.464;11.964;2022-08-21T07:56:27;14.03;;;11.83;;
46931;SDS011;32670;51.464;11.964;2022-08-21T07:58:54;14.23;;;11.00;;
46931;SDS011;32670;51.464;11.964;2022-08-21T08:01:22;13.07;;;11.53;;
46931;SDS011;32670;51.464;11.964;2022-08-21T08:03:47;13.07;;;11.77;;
46931;SDS011;32670;51.464;11.964;2022-08-21T08:06:13;14.03;;;10.77;;
46931;SDS011;32670;51.464;11.964;2022-08-21T08:08:39;10.57;;;9.00;;
46931;SDS011;32670;51.464;11.964;2022-08-21T08:11:05;16.00;;;12.93;;
46931;SDS011;32670;51.464;11.964;2022-08-21T08:13:37;12.87;;;9.83;;
46931;SDS011;32670;51.464;11.964;2022-08-21T08:16:04;15.23;;;8.70;;
46931;SDS011;32670;51.464;11.964;2022-08-21T08:18:29;13.87;;;9.80;;
46931;SDS011;32670;51.464;11.964;2022-08-21T08:20:55;18.17;;;12.30;;
46931;SDS011;32670;51.464;11.964;2022-08-21T08:23:20;12.63;;;10.93;;
46931;SDS011;32670;51.464;11.964;2022-08-21T08:25:47;14.37;;;11.70;;
46931;SDS011;32670;51.464;11.964;2022-08-21T08:28:13;17.13;;;13.60;;
46931;SDS011;32670;51.464;11.964;2022-08-21T08:30:38;15.93;;;14.33;;
46931;SDS011;32670;51.464;11.964;2022-08-21T08:33:04;16.57;;;14.37;;
46931;SDS011;32670;51.464;11.964;2022-08-21T08:35:29;23.60;;;20.00;;
46931;SDS011;32670;51.464;11.964;2022-08-21T08:37:54;18.87;;;16.87;;
46931;SDS011;32670;51.464;11.964;2022-08-21T08:40:27;24.03;;;21.50;;
46931;SDS011;32670;51.464;11.964;2022-08-21T08:43:00;29.73;;;24.73;;
46931;SDS011;32670;51.464;11.964;2022-08-21T08:45:26;23.70;;;19.63;;
46931;SDS011;32670;51.464;11.964;2022-08-21T08:47:55;25.40;;;21.93;;
46931;SDS011;32670;51.464;11.964;2022-08-21T08:50:33;23.93;;;21.40;;
46931;SDS011;32670;51.464;11.964;2022-08-21T08:53:36;25.63;;;23.03;;
46931;SDS011;32670;51.464;11.964;2022-08-21T08:56:13;25.93;;;22.93;;
46931;SDS011;32670;51.464;11.964;2022-08-21T08:58:39;23.63;;;21.23;;
46931;SDS011;32670;51.464;11.964;2022-08-21T09:01:12;29.10;;;26.20;;
46931;SDS011;32670;51.464;11.964;2022-08-21T09:03:42;25.77;;;23.07;;
46931;SDS011;32670;51.464;11.964;2022-08-21T09:06:13;30.07;;;26.93;;
46931;SDS011;32670;51.464;11.964;2022-08-21T09:09:00;25.03;;;22.53;;
46931;SDS011;32670;51.464;11.964;2022-08-21T09:11:57;28.10;;;25.40;;
46931;SDS011;32670;51.464;11.964;2022-08-21T09:17:24;30.07;;;26.80;;
46931;SDS011;32670;51.464;11.964;2022-08-21T09:23:05;26.80;;;23.97;;
46931;SDS011;32670;51.464;11.964;2022-08-21T09:26:25;32.43;;;28.93;;
46931;SDS011;32670;51.464;11.964;2022-08-21T09:28:39;30.70;;;25.87;;
46931;SDS011;32670;51.464;11.964;2022-08-21T09:31:14;32.23;;;27.33;;
46931;SDS011;32670;51.464;11.964;2022-08-21T09:33:46;31.13;;;27.87;;
46931;SDS011;32670;51.464;11.964;2022-08-21T09:36:12;32.73;;;29.37;;
46931;SDS011;32670;51.464;11.964;2022-08-21T09:38:51;38.33;;;34.00;;
46931;SDS011;32670;51.464;11.964;2022-08-21T09:41:25;35.63;;;31.70;;
46931;SDS011;32670;51.464;11.964;2022-08-21T09:43:52;41.83;;;37.53;;
46931;SDS011;32670;51.464;11.964;2022-08-21T09:46:22;39.90;;;35.73;;
46931;SDS011;32670;51.464;11.964;2022-08-21T09:48:51;18.13;;;16.13;;
46931;SDS011;32670;51.464;11.964;2022-08-21T09:51:25;22.93;;;20.47;;
46931;SDS011;32670;51.464;11.964;2022-08-21T09:53:55;27.40;;;21.03;;
46931;SDS011;32670;51.464;11.964;2022-08-21T09:56:32;24.53;;;20.73;;
46931;SDS011;32670;51.464;11.964;2022-08-21T09:59:26;25.53;;;20.10;;
46931;SDS011;32670;51.464;11.964;2022-08-21T10:01:57;25.13;;;22.00;;
46931;SDS011;32670;51.464;11.964;2022-08-21T10:04:33;28.23;;;22.80;;
46931;SDS011;32670;51.464;11.964;2022-08-21T10:07:06;33.97;;;27.73;;
46931;SDS011;32670;51.464;11.964;2022-08-21T10:09:36;32.50;;;28.77;;
46931;SDS011;32670;51.464;11.964;2022-08-21T10:14:51;32.27;;;26.50;;
46931;SDS011;32670;51.464;11.964;2022-08-21T10:17:47;32.30;;;28.97;;
46931;SDS011;32670;51.464;11.964;2022-08-21T10:20:22;33.20;;;29.70;;
46931;SDS011;32670;51.464;11.964;2022-08-21T10:23:03;30.83;;;27.63;;
46931;SDS011;32670;51.464;11.964;2022-08-21T10:28:57;28.43;;;25.40;;
46931;SDS011;32670;51.464;11.964;2022-08-21T10:34:59;31.47;;;28.07;;
46931;SDS011;32670;51.464;11.964;2022-08-21T10:40:30;28.97;;;25.10;;
46931;SDS011;32670;51.464;11.964;2022-08-21T10:43:23;30.30;;;26.97;;
46931;SDS011;32670;51.464;11.964;2022-08-21T10:46:16;28.10;;;25.17;;
46931;SDS011;32670;51.464;11.964;2022-08-21T10:49:17;29.83;;;26.67;;
46931;SDS011;32670;51.464;11.964;2022-08-21T10:52:24;31.60;;;28.40;;
46931;SDS011;32670;51.464;11.964;2022-08-21T10:55:08;30.47;;;27.37;;
46931;SDS011;32670;51.464;11.964;2022-08-21T10:57:44;31.33;;;28.17;;
46931;SDS011;32670;51.464;11.964;2022-08-21T11:00:21;30.23;;;27.30;;
46931;SDS011;32670;51.464;11.964;2022-08-21T11:02:51;31.60;;;28.40;;
46931;SDS011;32670;51.464;11.964;2022-08-21T11:05:32;33.40;;;29.83;;
46931;SDS011;32670;51.464;11.964;2022-08-21T11:10:52;33.77;;;30.33;;
46931;SDS011;32670;51.464;11.964;2022-08-21T11:16:22;36.27;;;32.43;;
46931;SDS011;32670;51.464;11.964;2022-08-21T11:19:04;33.53;;;30.13;;
46931;SDS011;32670;51.464;11.964;2022-08-21T11:21:42;33.33;;;29.93;;
46931;SDS011;32670;51.464;11.964;2022-08-21T11:27:01;34.80;;;31.10;;
46931;SDS011;32670;51.464;11.964;2022-08-21T11:29:36;33.53;;;30.17;;
46931;SDS011;32670;51.464;11.964;2022-08-21T11:32:07;38.83;;;34.80;;
46931;SDS011;32670;51.464;11.964;2022-08-21T11:34:54;42.17;;;38.07;;
46931;SDS011;32670;51.464;11.964;2022-08-21T11:43:41;37.07;;;33.63;;
46931;SDS011;32670;51.464;11.964;2022-08-21T11:46:35;39.23;;;35.37;;
46931;SDS011;32670;51.464;11.964;2022-08-21T11:49:11;43.63;;;39.30;;
46931;SDS011;32670;51.464;11.964;2022-08-21T11:51:46;40.97;;;36.83;;
46931;SDS011;32670;51.464;11.964;2022-08-21T11:54:23;40.37;;;36.27;;
46931;SDS011;32670;51.464;11.964;2022-08-21T11:57:01;39.50;;;35.70;;
46931;SDS011;32670;51.464;11.964;2022-08-21T11:59:40;39.47;;;35.57;;
46931;SDS011;32670;51.464;11.964;2022-08-21T12:02:28;40.17;;;36.30;;
46931;SDS011;32670;51.464;11.964;2022-08-21T12:04:59;42.77;;;38.57;;
46931;SDS011;32670;51.464;11.964;2022-08-21T12:07:33;48.37;;;43.50;;
46931;SDS011;32670;51.464;11.964;2022-08-21T12:10:30;43.30;;;38.80;;
46931;SDS011;32670;51.464;11.964;2022-08-21T12:13:04;42.50;;;38.43;;
46931;SDS011;32670;51.464;11.964;2022-08-21T12:15:33;43.00;;;38.80;;
46931;SDS011;32670;51.464;11.964;2022-08-21T12:20:59;40.53;;;36.73;;
46931;SDS011;32670;51.464;11.964;2022-08-21T12:23:42;43.27;;;38.97;;
46931;SDS011;32670;51.464;11.964;2022-08-21T12:26:19;38.27;;;34.37;;
46931;SDS011;32670;51.464;11.964;2022-08-21T12:28:48;46.27;;;41.57;;
46931;SDS011;32670;51.464;11.964;2022-08-21T12:31:24;42.57;;;38.47;;
46931;SDS011;32670;51.464;11.964;2022-08-21T12:33:53;41.80;;;37.40;;
46931;SDS011;32670;51.464;11.964;2022-08-21T12:36:26;44.23;;;39.63;;
46931;SDS011;32670;51.464;11.964;2022-08-21T12:39:04;42.23;;;38.00;;
46931;SDS011;32670;51.464;11.964;2022-08-21T12:41:41;44.83;;;40.13;;
46931;SDS011;32670;51.464;11.964;2022-08-21T12:44:17;45.67;;;40.63;;
46931;SDS011;32670;51.464;11.964;2022-08-21T12:47:15;43.47;;;39.00;;
46931;SDS011;32670;51.464;11.964;2022-08-21T12:49:54;47.83;;;39.90;;
46931;SDS011;32670;51.464;11.964;2022-08-21T12:52:30;47.93;;;42.93;;
46931;SDS011;32670;51.464;11.964;2022-08-21T12:55:00;45.80;;;40.83;;
46931;SDS011;32670;51.464;11.964;2022-08-21T12:57:27;52.37;;;45.97;;
46931;SDS011;32670;51.464;11.964;2022-08-21T12:59:58;50.93;;;41.90;;
46931;SDS011;32670;51.464;11.964;2022-08-21T13:02:28;48.40;;;39.77;;
46931;SDS011;32670;51.464;11.964;2022-08-21T13:04:56;46.97;;;41.97;;
46931;SDS011;32670;51.464;11.964;2022-08-21T13:07:27;51.67;;;44.00;;
46931;SDS011;32670;51.464;11.964;2022-08-21T13:10:12;52.40;;;46.07;;
46931;SDS011;32670;51.464;11.964;2022-08-21T13:12:43;50.97;;;45.40;;
46931;SDS011;32670;51.464;11.964;2022-08-21T13:15:09;51.90;;;46.37;;
46931;SDS011;32670;51.464;11.964;2022-08-21T13:17:39;53.50;;;45.40;;
46931;SDS011;32670;51.464;11.964;2022-08-21T13:20:18;52.73;;;46.63;;
46931;SDS011;32670;51.464;11.964;2022-08-21T13:22:49;52.97;;;45.07;;
46931;SDS011;32670;51.464;11.964;2022-08-21T13:25:16;55.87;;;49.50;;
46931;SDS011;32670;51.464;11.964;2022-08-21T13:27:45;53.83;;;48.10;;
46931;SDS011;32670;51.464;11.964;2022-08-21T13:30:32;54.03;;;46.93;;
46931;SDS011;32670;51.464;11.964;2022-08-21T13:33:00;55.53;;;48.17;;
46931;SDS011;32670;51.464;11.964;2022-08-21T13:35:31;55.20;;;48.73;;
46931;SDS011;32670;51.464;11.964;2022-08-21T13:38:01;54.57;;;48.77;;
46931;SDS011;32670;51.464;11.964;2022-08-21T13:40:29;55.57;;;48.70;;
46931;SDS011;32670;51.464;11.964;2022-08-21T13:43:15;53.80;;;48.13;;
46931;SDS011;32670;51.464;11.964;2022-08-21T13:45:47;50.07;;;44.83;;
46931;SDS011;32670;51.464;11.964;2022-08-21T13:48:14;57.67;;;50.03;;
46931;SDS011;32670;51.464;11.964;2022-08-21T13:50:40;55.97;;;50.13;;
46931;SDS011;32670;51.464;11.964;2022-08-21T13:53:18;50.40;;;44.67;;
46931;SDS011;32670;51.464;11.964;2022-08-21T13:55:52;52.87;;;45.87;;
46931;SDS011;32670;51.464;11.964;2022-08-21T13:58:28;51.87;;;46.27;;
46931;SDS011;32670;51.464;11.964;2022-08-21T14:00:58;52.27;;;46.67;;
46931;SDS011;32670;51.464;11.964;2022-08-21T14:03:32;52.83;;;47.40;;
46931;SDS011;32670;51.464;11.964;2022-08-21T14:06:00;55.57;;;49.80;;
46931;SDS011;32670;51.464;11.964;2022-08-21T14:08:27;54.87;;;48.97;;
46931;SDS011;32670;51.464;11.964;2022-08-21T14:10:59;54.10;;;48.53;;
46931;SDS011;32670;51.464;11.964;2022-08-21T14:13:41;56.47;;;50.47;;
46931;SDS011;32670;51.464;11.964;2022-08-21T14:16:11;55.40;;;48.87;;
46931;SDS011;32670;51.464;11.964;2022-08-21T14:18:44;54.40;;;48.87;;
46931;SDS011;32670;51.464;11.964;2022-08-21T14:21:11;56.00;;;48.47;;
46931;SDS011;32670;51.464;11.964;2022-08-21T14:23:38;53.93;;;48.57;;
46931;SDS011;32670;51.464;11.964;2022-08-21T14:26:05;56.03;;;50.13;;
46931;SDS011;32670;51.464;11.964;2022-08-21T14:28:32;55.57;;;49.83;;
46931;SDS011;32670;51.464;11.964;2022-08-21T14:31:15;52.57;;;47.30;;
46931;SDS011;32670;51.464;11.964;2022-08-21T14:33:43;55.10;;;48.27;;
46931;SDS011;32670;51.464;11.964;2022-08-21T14:36:09;49.93;;;44.93;;
46931;SDS011;32670;51.464;11.964;2022-08-21T14:38:36;49.53;;;43.50;;
46931;SDS011;32670;51.464;11.964;2022-08-21T14:41:04;46.93;;;42.13;;
46931;SDS011;32670;51.464;11.964;2022-08-21T14:43:40;49.33;;;44.27;;
46931;SDS011;32670;51.464;11.964;2022-08-21T14:46:06;50.07;;;44.87;;
46931;SDS011;32670;51.464;11.964;2022-08-21T14:48:32;45.07;;;40.20;;
46931;SDS011;32670;51.464;11.964;2022-08-21T14:50:57;48.23;;;43.10;;
46931;SDS011;32670;51.464;11.964;2022-08-21T14:53:23;47.07;;;42.10;;
46931;SDS011;32670;51.464;11.964;2022-08-21T14:55:49;46.80;;;41.93;;
46931;SDS011;32670;51.464;11.964;2022-08-21T14:58:29;47.30;;;42.23;;
46931;SDS011;32670;51.464;11.964;2022-08-21T15:00:56;49.10;;;43.70;;
46931;SDS011;32670;51.464;11.964;2022-08-21T15:03:22;47.53;;;42.73;;
46931;SDS011;32670;51.464;11.964;2022-08-21T15:05:49;49.00;;;44.00;;
46931;SDS011;32670;51.464;11.964;2022-08-21T15:08:15;49.93;;;44.93;;
46931;SDS011;32670;51.464;11.964;2022-08-21T15:10:41;48.30;;;43.50;;
46931;SDS011;32670;51.464;11.964;2022-08-21T15:13:06;48.20;;;43.20;;